createdAt,value
2018-12-18T05:00:27.286Z,98.43
2018-12-18T05:01:27.252Z,98.32
2018-12-18T05:02:27.241Z,98.43
2018-12-18T05:03:27.230Z,98.53
2018-12-18T05:04:27.243Z,97.80
2018-12-18T05:05:27.208Z,98.22
2018-12-18T05:06:27.196Z,98.11
2018-12-18T05:07:27.184Z,98.43
2018-12-18T05:08:27.175Z,98.32
2018-12-18T05:09:27.183Z,98.43
2018-12-18T05:10:27.154Z,98.32
2018-12-18T05:11:27.144Z,98.22
2018-12-18T05:12:27.130Z,98.43
2018-12-18T05:13:27.117Z,98.11
2018-12-18T05:14:27.118Z,98.47
2018-12-18T05:15:27.094Z,97.85
2018-12-18T05:16:27.082Z,97.95
2018-12-18T05:17:27.072Z,98.05
2018-12-18T05:18:27.064Z,97.53
2018-12-18T05:19:27.068Z,98.26
2018-12-18T05:20:27.037Z,98.68
2018-12-18T05:21:27.025Z,98.47
2018-12-18T05:22:27.020Z,98.47
2018-12-18T05:23:27.008Z,97.95
2018-12-18T05:24:27.009Z,98.05
2018-12-18T05:25:26.981Z,97.95
2018-12-18T05:26:26.973Z,97.85
2018-12-18T05:27:26.958Z,98.47
2018-12-18T05:28:26.947Z,98.37
2018-12-18T05:29:26.952Z,98.37
2018-12-18T05:30:26.928Z,98.47
2018-12-18T05:31:26.914Z,98.37
2018-12-18T05:32:26.901Z,98.16
2018-12-18T05:33:26.890Z,98.05
2018-12-18T05:34:26.879Z,98.58
2018-12-18T05:35:26.880Z,97.95
2018-12-18T05:36:26.856Z,98.16
2018-12-18T05:37:26.849Z,98.41
2018-12-18T05:38:26.837Z,98.47
2018-12-18T05:39:26.823Z,98.26
2018-12-18T05:40:26.823Z,97.99
2018-12-18T05:41:26.796Z,98.41
2018-12-18T05:42:26.784Z,98.47
2018-12-18T05:43:26.774Z,98.10
2018-12-18T05:44:26.762Z,97.78
2018-12-18T05:45:26.774Z,97.64
2018-12-18T05:46:26.748Z,98.21
2018-12-18T05:47:26.727Z,98.31
2018-12-18T05:48:26.716Z,98.52
2018-12-18T05:49:26.704Z,97.99
2018-12-18T05:50:26.711Z,98.10
2018-12-18T05:51:26.683Z,98.41
2018-12-18T05:52:26.670Z,98.41
2018-12-18T05:53:26.660Z,98.52
2018-12-18T05:54:26.648Z,98.05
2018-12-18T05:55:26.652Z,98.21
2018-12-18T05:56:26.635Z,97.95
2018-12-18T05:57:26.618Z,98.47
2018-12-18T05:58:26.606Z,98.62
2018-12-18T05:59:26.592Z,98.31
2018-12-18T06:00:26.592Z,98.41
2018-12-18T06:01:26.573Z,98.41
2018-12-18T06:02:26.575Z,98.47
2018-12-18T06:03:26.546Z,98.52
2018-12-18T06:04:26.538Z,98.47
2018-12-18T06:05:26.538Z,98.47
2018-12-18T06:06:26.512Z,98.05
2018-12-18T06:07:26.504Z,98.47
2018-12-18T06:08:26.493Z,98.85
2018-12-18T06:09:26.483Z,99.16
2018-12-18T06:10:26.478Z,99.05
2018-12-18T06:11:26.458Z,99.16
2018-12-18T06:12:26.444Z,98.85
2018-12-18T06:13:26.433Z,98.95
2018-12-18T06:14:26.422Z,98.95
2018-12-18T06:15:26.426Z,99.26
2018-12-18T06:16:26.399Z,98.49
2018-12-18T06:17:26.387Z,99.22
2018-12-18T06:18:26.376Z,99.11
2018-12-18T06:19:26.365Z,99.63
2018-12-18T06:20:26.380Z,99.63
2018-12-18T06:21:26.338Z,99.22
2018-12-18T06:22:26.328Z,99.17
2018-12-18T06:23:26.317Z,98.86
2018-12-18T06:24:26.307Z,98.55
2018-12-18T06:25:26.313Z,99.38
2018-12-18T06:26:26.286Z,98.86
2018-12-18T06:27:26.271Z,98.92
2018-12-18T06:28:26.783Z,98.50
2018-12-18T06:29:26.253Z,98.19
2018-12-18T06:30:26.267Z,98.50
2018-12-18T06:31:26.242Z,98.60
2018-12-18T06:32:26.223Z,98.19
2018-12-18T06:33:26.204Z,98.60
2018-12-18T06:34:26.194Z,98.35
2018-12-18T06:35:26.192Z,98.56
2018-12-18T06:36:26.169Z,98.08
2018-12-18T06:37:26.215Z,97.83
2018-12-18T06:38:26.145Z,97.62
2018-12-18T06:39:26.134Z,97.52
2018-12-18T06:40:26.135Z,97.83
2018-12-18T06:41:26.115Z,97.88
2018-12-18T06:42:26.104Z,97.77
2018-12-18T06:43:26.091Z,97.88
2018-12-18T06:44:26.077Z,97.62
2018-12-18T06:45:26.078Z,97.83
2018-12-18T06:46:26.059Z,98.14
2018-12-18T06:47:26.048Z,96.89
2018-12-18T06:48:26.034Z,97.83
2018-12-18T06:49:26.021Z,97.88
2018-12-18T06:50:26.030Z,97.94
2018-12-18T06:51:26.000Z,96.94
2018-12-18T06:52:25.987Z,97.72
2018-12-18T06:53:25.976Z,97.31
2018-12-18T06:54:25.964Z,97.67
2018-12-18T06:55:25.967Z,96.83
2018-12-18T06:56:25.942Z,97.35
2018-12-18T06:57:25.931Z,97.35
2018-12-18T06:58:25.915Z,97.67
2018-12-18T06:59:25.907Z,97.14
2018-12-18T07:00:25.912Z,97.35
2018-12-18T07:01:25.899Z,97.77
2018-12-18T07:02:25.870Z,97.31
2018-12-18T07:03:25.858Z,97.52
2018-12-18T07:04:25.848Z,97.35
2018-12-18T07:05:25.854Z,97.31
2018-12-18T07:06:25.827Z,96.89
2018-12-18T07:07:25.813Z,97.41
2018-12-18T07:08:25.806Z,97.46
2018-12-18T07:09:25.790Z,97.25
2018-12-18T07:10:25.797Z,97.35
2018-12-18T07:11:25.772Z,97.56
2018-12-18T07:12:25.760Z,96.94
2018-12-18T07:13:25.746Z,96.73
2018-12-18T07:14:25.734Z,96.83
2018-12-18T07:15:25.736Z,96.73
2018-12-18T07:16:25.712Z,96.21
2018-12-18T07:17:25.711Z,96.73
2018-12-18T07:18:25.687Z,96.46
2018-12-18T07:19:25.678Z,96.46
2018-12-18T07:20:25.679Z,96.77
2018-12-18T07:21:25.656Z,96.56
2018-12-18T07:22:25.647Z,96.67
2018-12-18T07:23:25.639Z,96.46
2018-12-18T07:24:25.619Z,96.46
2018-12-18T07:25:25.627Z,97.71
2018-12-18T07:26:25.595Z,97.50
2018-12-18T07:27:25.827Z,97.81
2018-12-18T07:28:25.572Z,97.81
2018-12-18T07:29:25.614Z,97.92
2018-12-18T07:30:25.566Z,98.02
2018-12-18T07:31:25.539Z,98.02
2018-12-18T07:32:25.534Z,97.81
2018-12-18T07:33:25.532Z,97.19
2018-12-18T07:34:25.505Z,97.50
2018-12-18T07:35:25.506Z,97.71
2018-12-18T07:36:25.485Z,97.40
2018-12-18T07:37:25.471Z,97.19
2018-12-18T07:38:25.459Z,97.71
2018-12-18T07:39:25.470Z,97.71
2018-12-18T07:40:25.517Z,97.50
2018-12-18T07:41:26.818Z,97.71
2018-12-18T07:42:25.413Z,96.98
2018-12-18T07:43:25.403Z,96.77
2018-12-18T07:44:25.390Z,96.40
2018-12-18T07:45:25.403Z,97.03
2018-12-18T07:46:25.385Z,97.65
2018-12-18T07:47:25.352Z,97.65
2018-12-18T07:48:25.341Z,97.44
2018-12-18T07:49:25.341Z,97.75
2018-12-18T07:50:25.319Z,97.65
2018-12-18T07:51:25.325Z,97.24
2018-12-18T07:52:25.295Z,97.44
2018-12-18T07:53:25.284Z,97.44
2018-12-18T07:54:25.273Z,97.55
2018-12-18T07:55:25.263Z,97.44
2018-12-18T07:56:25.265Z,97.24
2018-12-18T07:57:25.245Z,97.34
2018-12-18T07:58:25.234Z,97.44
2018-12-18T07:59:25.217Z,97.65
2018-12-18T08:00:25.209Z,97.44
2018-12-18T08:01:25.210Z,97.75
2018-12-18T08:02:25.189Z,96.86
2018-12-18T08:03:25.171Z,96.86
2018-12-18T08:04:25.165Z,96.55
2018-12-18T08:05:29.790Z,96.86
2018-12-18T08:06:25.155Z,96.55
2018-12-18T08:07:25.126Z,96.55
2018-12-18T08:08:25.099Z,96.76
2018-12-18T08:09:25.104Z,97.28
2018-12-18T08:10:25.092Z,97.28
2018-12-18T08:11:25.093Z,97.28
2018-12-18T08:12:25.071Z,97.28
2018-12-18T08:13:25.124Z,97.59
2018-12-18T08:14:25.050Z,97.49
2018-12-18T08:15:25.035Z,97.49
2018-12-18T08:16:25.041Z,96.80
2018-12-18T08:17:25.010Z,97.95
2018-12-18T08:18:25.005Z,97.85
2018-12-18T08:19:24.988Z,96.86
2018-12-18T08:20:24.974Z,96.91
2018-12-18T08:21:24.975Z,96.59
2018-12-18T08:22:24.954Z,97.85
2018-12-18T08:23:24.941Z,97.17
2018-12-18T08:24:24.933Z,97.49
2018-12-18T08:25:24.923Z,97.38
2018-12-18T08:26:24.927Z,96.97
2018-12-18T08:27:24.896Z,97.11
2018-12-18T08:28:24.883Z,96.97
2018-12-18T08:29:24.873Z,96.91
2018-12-18T08:30:24.863Z,96.55
2018-12-18T08:31:24.863Z,97.01
2018-12-18T08:32:24.840Z,96.70
2018-12-18T08:33:24.843Z,96.86
2018-12-18T08:34:24.826Z,96.97
2018-12-18T08:35:24.805Z,96.44
2018-12-18T08:36:24.808Z,96.34
2018-12-18T08:37:24.780Z,96.97
2018-12-18T08:38:24.770Z,96.66
2018-12-18T08:39:24.757Z,96.66
2018-12-18T08:40:24.760Z,96.86
2018-12-18T08:41:24.747Z,96.34
2018-12-18T08:42:24.722Z,97.07
2018-12-18T08:43:24.701Z,96.86
2018-12-18T08:44:24.698Z,96.76
2018-12-18T08:45:24.687Z,97.07
2018-12-18T08:46:24.691Z,97.80
2018-12-18T08:47:24.664Z,97.80
2018-12-18T08:48:24.656Z,96.66
2018-12-18T08:49:24.642Z,96.82
2018-12-18T08:50:24.631Z,96.82
2018-12-18T08:51:24.637Z,96.71
2018-12-18T08:52:24.612Z,96.61
2018-12-18T08:53:24.597Z,96.56
2018-12-18T08:54:24.585Z,96.40
2018-12-18T08:55:24.574Z,96.19
2018-12-18T08:56:24.579Z,96.36
2018-12-18T08:57:24.552Z,95.79
2018-12-18T08:58:24.538Z,95.17
2018-12-18T08:59:24.527Z,94.92
2018-12-18T09:00:24.521Z,94.23
2018-12-18T09:01:24.523Z,94.43
2018-12-18T09:02:24.490Z,94.85
2018-12-18T09:03:24.480Z,95.00
2018-12-18T09:04:24.468Z,94.79
2018-12-18T09:05:24.457Z,95.10
2018-12-18T09:06:24.465Z,94.79
2018-12-18T09:07:24.423Z,95.25
2018-12-18T09:08:24.422Z,95.36
2018-12-18T09:09:24.411Z,95.15
2018-12-18T09:10:24.400Z,95.46
2018-12-18T09:11:24.402Z,96.30
2018-12-18T09:12:24.376Z,95.98
2018-12-18T09:13:24.365Z,95.98
2018-12-18T09:14:24.354Z,96.61
2018-12-18T09:15:24.345Z,96.71
2018-12-18T09:16:24.344Z,96.61
2018-12-18T09:17:24.326Z,96.50
2018-12-18T09:18:24.305Z,96.09
2018-12-18T09:19:24.298Z,96.19
2018-12-18T09:20:24.285Z,95.98
2018-12-18T09:21:24.287Z,95.78
2018-12-18T09:22:24.263Z,96.40
2018-12-18T09:23:24.248Z,95.88
2018-12-18T09:24:24.237Z,96.19
2018-12-18T09:25:24.226Z,96.40
2018-12-18T09:26:24.230Z,96.92
2018-12-18T09:27:24.219Z,97.65
2018-12-18T09:28:24.192Z,97.44
2018-12-18T09:29:24.180Z,97.44
2018-12-18T09:30:24.173Z,97.34
2018-12-18T09:31:24.169Z,96.92
2018-12-18T09:32:24.151Z,97.34
2018-12-18T09:33:24.141Z,97.24
2018-12-18T09:34:24.123Z,97.44
2018-12-18T09:35:24.127Z,97.65
2018-12-18T09:36:24.117Z,97.24
2018-12-18T09:37:24.089Z,97.65
2018-12-18T09:38:24.078Z,97.03
2018-12-18T09:39:24.069Z,97.65
2018-12-18T09:40:24.055Z,97.44
2018-12-18T09:41:24.060Z,98.34
2018-12-18T09:42:24.032Z,98.13
2018-12-18T09:43:24.033Z,97.86
2018-12-18T09:44:24.014Z,97.75
2018-12-18T09:45:23.994Z,97.81
2018-12-18T09:46:24.027Z,97.71
2018-12-18T09:47:23.972Z,97.61
2018-12-18T09:48:23.967Z,97.19
2018-12-18T09:49:23.950Z,98.13
2018-12-18T09:50:23.938Z,98.13
2018-12-18T09:51:23.926Z,97.71
2018-12-18T09:52:23.927Z,97.98
2018-12-18T09:53:23.904Z,98.29
2018-12-18T09:54:23.894Z,98.29
2018-12-18T09:55:23.881Z,97.46
2018-12-18T09:56:23.871Z,97.88
2018-12-18T09:57:23.870Z,97.77
2018-12-18T09:58:23.850Z,97.67
2018-12-18T09:59:23.837Z,97.77
2018-12-18T10:00:23.826Z,97.98
2018-12-18T10:01:23.815Z,97.77
2018-12-18T10:02:23.817Z,98.08
2018-12-18T10:03:23.790Z,97.88
2018-12-18T10:04:23.781Z,97.56
2018-12-18T10:05:23.768Z,97.67
2018-12-18T10:06:23.757Z,97.56
2018-12-18T10:07:23.761Z,97.41
2018-12-18T10:08:23.733Z,97.67
2018-12-18T10:09:23.720Z,97.46
2018-12-18T10:10:23.708Z,97.62
2018-12-18T10:11:23.692Z,97.35
2018-12-18T10:12:23.701Z,97.10
2018-12-18T10:13:23.673Z,97.31
2018-12-18T10:14:23.662Z,97.20
2018-12-18T10:15:23.652Z,97.31
2018-12-18T10:16:23.642Z,97.41
2018-12-18T10:17:23.642Z,97.10
2018-12-18T10:18:23.619Z,97.52
2018-12-18T10:19:23.609Z,97.31
2018-12-18T10:20:23.598Z,97.47
2018-12-18T10:21:23.582Z,97.62
2018-12-18T10:22:23.584Z,97.52
2018-12-18T10:23:23.574Z,98.10
2018-12-18T10:24:23.549Z,97.99
2018-12-18T10:25:23.540Z,97.58
2018-12-18T10:26:23.523Z,97.47
2018-12-18T10:27:23.528Z,98.20
2018-12-18T10:28:23.499Z,97.58
2018-12-18T10:29:23.489Z,97.27
2018-12-18T10:30:23.488Z,98.31
2018-12-18T10:31:23.467Z,97.22
2018-12-18T10:32:23.472Z,97.22
2018-12-18T10:33:23.439Z,97.53
2018-12-18T10:34:23.431Z,97.74
2018-12-18T10:35:23.421Z,97.95
2018-12-18T10:36:23.411Z,97.64
2018-12-18T10:37:23.414Z,97.53
2018-12-18T10:38:23.386Z,97.70
2018-12-18T10:39:23.364Z,97.49
2018-12-18T10:40:23.366Z,97.91
2018-12-18T10:41:23.353Z,97.59
2018-12-18T10:42:23.357Z,97.49
2018-12-18T10:43:23.329Z,97.17
2018-12-18T10:44:23.318Z,97.17
2018-12-18T10:45:23.310Z,96.66
2018-12-18T10:46:23.317Z,96.55
2018-12-18T10:47:23.281Z,97.38
2018-12-18T10:48:23.269Z,97.38
2018-12-18T10:49:23.258Z,97.38
2018-12-18T10:50:23.248Z,96.45
2018-12-18T10:51:23.235Z,96.45
2018-12-18T10:52:23.241Z,96.76
2018-12-18T10:53:23.212Z,97.07
2018-12-18T10:54:23.189Z,97.07
2018-12-18T10:55:23.193Z,97.17
2018-12-18T10:56:23.180Z,97.17
2018-12-18T10:57:23.183Z,96.66
2018-12-18T10:58:24.181Z,97.59
2018-12-18T10:59:23.149Z,97.86
2018-12-18T11:00:23.133Z,97.65
2018-12-18T11:01:23.122Z,97.55
2018-12-18T11:02:23.127Z,97.65
2018-12-18T11:03:23.100Z,97.50
2018-12-18T11:04:23.088Z,97.61
2018-12-18T11:05:23.078Z,96.78
2018-12-18T11:06:23.067Z,97.30
2018-12-18T11:07:23.070Z,95.84
2018-12-18T11:08:23.039Z,95.73
2018-12-18T11:09:23.028Z,95.73
2018-12-18T11:10:23.060Z,95.48
2018-12-18T11:11:23.005Z,95.17
2018-12-18T11:12:23.011Z,94.55
2018-12-18T11:13:22.987Z,94.55
2018-12-18T11:14:22.977Z,94.13
2018-12-18T11:15:22.960Z,93.93
2018-12-18T11:16:22.948Z,94.65
2018-12-18T11:17:22.956Z,94.76
2018-12-18T11:18:22.929Z,93.82
2018-12-18T11:19:22.930Z,93.72
2018-12-18T11:20:22.912Z,94.03
2018-12-18T11:21:24.833Z,93.87
2018-12-18T11:22:24.891Z,93.76
2018-12-18T11:23:22.860Z,93.87
2018-12-18T11:24:22.936Z,93.66
2018-12-18T11:25:22.849Z,93.55
2018-12-18T11:26:22.845Z,93.76
2018-12-18T11:27:22.839Z,93.45
2018-12-18T11:28:22.813Z,93.97
2018-12-18T11:29:22.799Z,93.97
2018-12-18T11:30:22.787Z,94.18
2018-12-18T11:31:22.776Z,94.28
2018-12-18T11:32:22.781Z,93.55
2018-12-18T11:33:22.756Z,93.76
2018-12-18T11:34:22.742Z,93.24
2018-12-18T11:35:22.730Z,93.03
2018-12-18T11:36:22.720Z,93.14
2018-12-18T11:37:25.084Z,93.14
2018-12-18T11:38:22.698Z,93.07
2018-12-18T11:39:22.690Z,93.49
2018-12-18T11:40:22.675Z,93.66
2018-12-18T11:41:22.664Z,93.24
2018-12-18T11:42:22.669Z,93.45
2018-12-18T11:43:22.640Z,93.76
2018-12-18T11:44:22.629Z,93.03
2018-12-18T11:45:22.614Z,92.88
2018-12-18T11:46:22.603Z,92.78
2018-12-18T11:47:22.611Z,91.95
2018-12-18T11:48:22.584Z,91.64
2018-12-18T11:49:22.569Z,91.64
2018-12-18T11:50:22.557Z,91.64
2018-12-18T11:51:22.545Z,92.36
2018-12-18T11:52:22.547Z,92.26
2018-12-18T11:53:22.524Z,92.26
2018-12-18T11:54:22.516Z,91.18
2018-12-18T11:55:22.502Z,91.18
2018-12-18T11:56:22.489Z,91.28
2018-12-18T11:57:22.479Z,91.24
2018-12-18T11:58:22.482Z,90.20
2018-12-18T11:59:22.456Z,88.51
2018-12-18T12:00:22.444Z,87.63
2018-12-18T12:01:22.435Z,87.74
2018-12-18T12:02:22.420Z,87.01
2018-12-18T12:03:22.422Z,87.01
2018-12-18T12:04:22.398Z,86.49
2018-12-18T12:05:22.386Z,85.73
2018-12-18T12:06:23.243Z,85.63
2018-12-18T12:07:22.357Z,85.58
2018-12-18T12:08:22.366Z,84.96
2018-12-18T12:09:22.337Z,84.75
2018-12-18T12:10:22.330Z,84.96
2018-12-18T12:11:22.303Z,85.69
2018-12-18T12:12:22.304Z,85.89
2018-12-18T12:13:22.308Z,85.69
2018-12-18T12:14:22.282Z,86.04
2018-12-18T12:15:22.273Z,86.04
2018-12-18T12:16:22.397Z,86.21
2018-12-18T12:17:22.249Z,85.48
2018-12-18T12:18:22.247Z,85.79
2018-12-18T12:19:22.226Z,84.86
2018-12-18T12:20:22.215Z,84.96
2018-12-18T12:21:22.200Z,84.03
2018-12-18T12:22:22.191Z,83.89
2018-12-18T12:23:22.182Z,83.58
2018-12-18T12:24:22.172Z,83.64
2018-12-18T12:25:22.157Z,82.34
2018-12-18T12:26:22.142Z,82.29
2018-12-18T12:27:22.132Z,81.57
2018-12-18T12:28:22.127Z,81.68
2018-12-18T12:29:22.106Z,82.60
2018-12-18T12:30:22.096Z,82.50
2018-12-18T12:31:22.091Z,82.13
2018-12-18T12:32:22.073Z,82.34
2018-12-18T12:33:22.080Z,82.13
2018-12-18T12:34:22.051Z,82.86
2018-12-18T12:35:22.040Z,83.00
2018-12-18T12:36:22.029Z,84.03
2018-12-18T12:37:22.020Z,84.34
2018-12-18T12:38:22.018Z,84.55
2018-12-18T12:39:21.994Z,84.69
2018-12-18T12:40:21.986Z,84.80
2018-12-18T12:41:21.972Z,85.00
2018-12-18T12:42:21.958Z,85.52
2018-12-18T12:43:21.961Z,86.08
2018-12-18T12:44:21.940Z,85.87
2018-12-18T12:45:21.922Z,86.64
2018-12-18T12:46:21.911Z,86.54
2018-12-18T12:47:21.899Z,86.95
2018-12-18T12:48:21.923Z,87.05
2018-12-18T12:49:21.879Z,88.09
2018-12-18T12:50:21.866Z,87.82
2018-12-18T12:51:21.846Z,87.99
2018-12-18T12:52:21.850Z,87.68
2018-12-18T12:53:21.847Z,87.68
2018-12-18T12:54:21.819Z,88.02
2018-12-18T12:55:21.809Z,87.61
2018-12-18T12:56:21.797Z,87.82
2018-12-18T12:57:21.771Z,87.71
2018-12-18T12:58:21.785Z,87.82
2018-12-18T12:59:21.763Z,87.71
2018-12-18T13:00:21.760Z,87.82
2018-12-18T13:01:21.742Z,88.13
2018-12-18T13:02:21.728Z,88.34
2018-12-18T13:03:21.732Z,88.23
2018-12-18T13:04:21.707Z,87.92
2018-12-18T13:05:21.696Z,87.86
2018-12-18T13:06:21.685Z,88.17
2018-12-18T13:07:21.669Z,88.38
2018-12-18T13:08:21.674Z,88.73
2018-12-18T13:09:21.645Z,88.52
2018-12-18T13:10:21.650Z,88.62
2018-12-18T13:11:21.606Z,89.15
2018-12-18T13:12:21.612Z,89.15
2018-12-18T13:13:21.613Z,89.15
2018-12-18T13:14:21.587Z,89.39
2018-12-18T13:15:21.581Z,90.02
2018-12-18T13:16:21.565Z,89.70
2018-12-18T13:17:21.555Z,89.70
2018-12-18T13:18:21.554Z,90.37
2018-12-18T13:19:21.533Z,90.12
2018-12-18T13:20:21.521Z,90.26
2018-12-18T13:21:21.506Z,91.00
2018-12-18T13:22:21.499Z,90.79
2018-12-18T13:23:23.510Z,90.79
2018-12-18T13:24:21.505Z,91.20
2018-12-18T13:25:21.495Z,91.31
2018-12-18T13:26:21.455Z,90.58
2018-12-18T13:27:21.439Z,90.79
2018-12-18T13:28:21.438Z,90.58
2018-12-18T13:29:21.414Z,90.93
2018-12-18T13:30:21.406Z,91.31
2018-12-18T13:31:21.403Z,91.77
2018-12-18T13:32:21.381Z,91.56
2018-12-18T13:33:21.388Z,91.66
2018-12-18T13:34:21.360Z,91.56
2018-12-18T13:35:21.353Z,91.35
2018-12-18T13:36:21.336Z,91.46
2018-12-18T13:37:21.329Z,91.97
2018-12-18T13:38:21.329Z,91.77
2018-12-18T13:39:21.302Z,92.60
2018-12-18T13:40:21.290Z,92.18
2018-12-18T13:41:21.278Z,92.08
2018-12-18T13:42:21.271Z,91.87
2018-12-18T13:43:21.268Z,91.71
2018-12-18T13:44:21.249Z,92.64
2018-12-18T13:45:21.234Z,92.22
2018-12-18T13:46:21.219Z,92.85
2018-12-18T13:47:26.996Z,92.22
2018-12-18T13:48:22.209Z,92.12
2018-12-18T13:49:21.192Z,92.12
2018-12-18T13:50:21.179Z,92.74
2018-12-18T13:51:21.175Z,92.64
2018-12-18T13:52:21.150Z,92.74
2018-12-18T13:53:21.156Z,92.85
2018-12-18T13:54:21.128Z,92.85
2018-12-18T13:55:21.119Z,92.58
2018-12-18T13:56:21.105Z,92.89
2018-12-18T13:57:21.093Z,92.79
2018-12-18T13:58:21.083Z,92.99
2018-12-18T13:59:21.072Z,92.68
2018-12-18T14:00:21.060Z,92.89
2018-12-18T14:01:21.048Z,93.20
2018-12-18T14:02:21.038Z,93.05
2018-12-18T14:03:21.058Z,93.41
2018-12-18T14:04:21.018Z,94.14
2018-12-18T14:05:21.001Z,93.16
2018-12-18T14:06:20.992Z,93.37
2018-12-18T14:07:20.983Z,92.74
2018-12-18T14:08:20.966Z,93.05
2018-12-18T14:09:20.971Z,94.10
2018-12-18T14:10:20.941Z,94.10
2018-12-18T14:11:20.930Z,93.74
2018-12-18T14:12:20.923Z,93.12
2018-12-18T14:13:20.909Z,91.47
2018-12-18T14:14:20.970Z,89.56
2018-12-18T14:15:22.359Z,87.09
2018-12-18T14:16:20.878Z,86.74
2018-12-18T14:17:20.864Z,86.22
2018-12-18T14:18:20.852Z,86.22
2018-12-18T14:19:20.853Z,86.22
2018-12-18T14:20:20.828Z,86.74
2018-12-18T14:21:20.821Z,87.16
2018-12-18T14:22:20.806Z,88.02
2018-12-18T14:23:20.794Z,87.78
2018-12-18T14:24:20.795Z,87.92
2018-12-18T14:25:20.771Z,87.92
2018-12-18T14:26:20.761Z,88.23
2018-12-18T14:27:20.761Z,88.34
2018-12-18T14:28:20.746Z,88.54
2018-12-18T14:29:20.744Z,88.90
2018-12-18T14:30:20.711Z,88.90
2018-12-18T14:31:20.701Z,88.90
2018-12-18T14:32:20.692Z,89.21
2018-12-18T14:33:20.690Z,88.07
2018-12-18T14:34:20.683Z,88.13
2018-12-18T14:35:20.656Z,87.61
2018-12-18T14:36:20.649Z,87.92
2018-12-18T14:37:20.632Z,88.02
2018-12-18T14:38:20.624Z,87.82
2018-12-18T14:39:20.627Z,88.13
2018-12-18T14:40:20.599Z,88.48
2018-12-18T14:41:20.599Z,88.48
2018-12-18T14:42:20.577Z,88.79
2018-12-18T14:43:20.566Z,88.59
2018-12-18T14:44:20.571Z,89.00
2018-12-18T14:45:20.544Z,88.52
2018-12-18T14:46:20.540Z,88.62
2018-12-18T14:47:20.522Z,89.08
2018-12-18T14:48:20.512Z,89.50
2018-12-18T14:49:20.509Z,89.70
2018-12-18T14:50:20.482Z,89.39
2018-12-18T14:51:20.466Z,89.64
2018-12-18T14:52:20.461Z,90.16
2018-12-18T14:53:20.451Z,90.26
2018-12-18T14:54:20.455Z,90.69
2018-12-18T14:55:20.427Z,90.58
2018-12-18T14:56:20.413Z,91.35
2018-12-18T14:57:20.403Z,91.56
2018-12-18T14:58:20.394Z,91.56
2018-12-18T14:59:20.391Z,91.50
2018-12-18T15:00:20.368Z,91.35
2018-12-18T15:01:20.358Z,91.35
2018-12-18T15:02:20.347Z,91.14
2018-12-18T15:03:20.334Z,91.50
2018-12-18T15:04:20.336Z,91.50
2018-12-18T15:05:20.324Z,91.81
2018-12-18T15:06:20.310Z,91.81
2018-12-18T15:07:20.291Z,91.85
2018-12-18T15:08:20.280Z,92.54
2018-12-18T15:09:20.284Z,92.37
2018-12-18T15:10:20.263Z,92.37
2018-12-18T15:11:20.240Z,92.27
2018-12-18T15:12:20.231Z,92.12
2018-12-18T15:13:20.223Z,92.58
2018-12-18T15:14:20.233Z,92.54
2018-12-18T15:15:20.193Z,92.74
2018-12-18T15:16:20.185Z,92.16
2018-12-18T15:17:20.175Z,92.58
2018-12-18T15:18:20.162Z,92.68
2018-12-18T15:19:20.163Z,92.33
2018-12-18T15:20:20.140Z,92.89
2018-12-18T15:21:20.128Z,92.68
2018-12-18T15:22:21.428Z,92.89
2018-12-18T15:23:20.105Z,92.47
2018-12-18T15:24:20.105Z,93.04
2018-12-18T15:25:20.084Z,92.99
2018-12-18T15:26:20.072Z,92.79
2018-12-18T15:27:20.065Z,93.10
2018-12-18T15:28:20.050Z,93.20
2018-12-18T15:29:20.052Z,93.20
2018-12-18T15:30:25.739Z,92.79
2018-12-18T15:31:21.019Z,92.89
2018-12-18T15:32:20.000Z,93.31
2018-12-18T15:33:20.010Z,93.52
2018-12-18T15:34:19.994Z,93.52
2018-12-18T15:35:19.967Z,94.14
2018-12-18T15:36:19.955Z,93.52
2018-12-18T15:37:19.944Z,93.14
2018-12-18T15:38:19.932Z,93.24
2018-12-18T15:39:19.938Z,93.46
2018-12-18T15:40:19.909Z,93.98
2018-12-18T15:41:19.899Z,94.04
2018-12-18T15:42:19.886Z,93.87
2018-12-18T15:43:19.884Z,94.08
2018-12-18T15:44:19.881Z,94.08
2018-12-18T15:45:19.853Z,93.56
2018-12-18T15:46:19.843Z,94.18
2018-12-18T15:47:19.834Z,94.39
2018-12-18T15:48:19.819Z,93.77
2018-12-18T15:49:19.818Z,93.77
2018-12-18T15:50:19.797Z,93.77
2018-12-18T15:51:19.782Z,94.18
2018-12-18T15:52:19.778Z,93.87
2018-12-18T15:53:19.762Z,93.93
2018-12-18T15:54:19.767Z,94.14
2018-12-18T15:55:19.740Z,93.93
2018-12-18T15:56:19.729Z,94.14
2018-12-18T15:57:19.725Z,94.35
2018-12-18T15:58:19.705Z,94.04
2018-12-18T15:59:19.707Z,94.24
2018-12-18T16:00:19.687Z,94.29
2018-12-18T16:01:19.672Z,93.73
2018-12-18T16:02:24.252Z,94.24
2018-12-18T16:03:19.650Z,94.24
2018-12-18T16:04:19.650Z,94.24
2018-12-18T16:05:19.625Z,94.14
2018-12-18T16:06:19.615Z,94.04
2018-12-18T16:07:19.597Z,94.24
2018-12-18T16:08:19.589Z,94.18
2018-12-18T16:09:19.959Z,94.35
2018-12-18T16:10:19.617Z,94.29
2018-12-18T16:11:19.546Z,94.24
2018-12-18T16:12:19.550Z,93.93
2018-12-18T16:13:19.548Z,94.49
2018-12-18T16:14:19.540Z,94.18
2018-12-18T16:15:19.510Z,94.04
2018-12-18T16:16:19.498Z,94.39
2018-12-18T16:17:19.487Z,93.98
2018-12-18T16:18:19.484Z,94.39
2018-12-18T16:19:21.516Z,94.14
2018-12-18T16:20:19.465Z,94.18
2018-12-18T16:21:19.442Z,93.73
2018-12-18T16:22:19.457Z,94.29
2018-12-18T16:23:19.471Z,94.29
2018-12-18T16:24:19.408Z,93.77
2018-12-18T16:25:19.412Z,93.98
2018-12-18T16:26:19.388Z,94.29
2018-12-18T16:27:19.373Z,94.29
2018-12-18T16:28:19.362Z,94.39
2018-12-18T16:29:19.350Z,93.46
2018-12-18T16:30:19.428Z,93.91
2018-12-18T16:31:19.328Z,94.33
2018-12-18T16:32:19.317Z,94.23
2018-12-18T16:33:19.311Z,93.91
2018-12-18T16:34:19.295Z,94.43
2018-12-18T16:35:19.296Z,94.12
2018-12-18T16:36:19.272Z,94.23
2018-12-18T16:37:22.929Z,94.27
2018-12-18T16:38:19.252Z,94.17
2018-12-18T16:39:19.243Z,93.85
2018-12-18T16:40:19.247Z,94.06
2018-12-18T16:41:19.215Z,93.85
2018-12-18T16:42:19.204Z,94.79
2018-12-18T16:43:19.194Z,95.00
2018-12-18T16:44:19.196Z,95.00
2018-12-18T16:45:19.183Z,94.90
2018-12-18T16:46:19.163Z,95.10
2018-12-18T16:47:19.156Z,95.21
2018-12-18T16:48:19.137Z,95.21
2018-12-18T16:49:20.737Z,95.10
2018-12-18T16:50:19.125Z,95.21
2018-12-18T16:51:19.094Z,95.10
2018-12-18T16:52:19.168Z,95.10
2018-12-18T16:53:19.079Z,94.64
2018-12-18T16:54:19.068Z,95.06
2018-12-18T16:55:19.068Z,95.06
2018-12-18T16:56:19.045Z,95.06
2018-12-18T16:57:19.031Z,94.75
2018-12-18T16:58:19.024Z,94.58
2018-12-18T16:59:19.012Z,94.69
2018-12-18T17:00:19.013Z,95.10
2018-12-18T17:01:18.985Z,95.06
2018-12-18T17:02:18.977Z,95.21
2018-12-18T17:03:18.962Z,94.75
2018-12-18T17:04:18.950Z,94.43
2018-12-18T17:05:18.952Z,95.10
2018-12-18T17:06:18.930Z,93.85
2018-12-18T17:07:18.922Z,95.21
2018-12-18T17:08:18.905Z,94.33
2018-12-18T17:09:18.896Z,95.21
2018-12-18T17:10:18.895Z,95.10
2018-12-18T17:11:18.869Z,94.37
2018-12-18T17:12:18.862Z,94.90
2018-12-18T17:13:18.856Z,94.79
2018-12-18T17:14:18.842Z,95.00
2018-12-18T17:15:18.842Z,95.21
2018-12-18T17:16:18.811Z,94.79
2018-12-18T17:17:18.801Z,95.21
2018-12-18T17:18:18.789Z,95.00
2018-12-18T17:19:18.941Z,95.17
2018-12-18T17:20:18.781Z,95.21
2018-12-18T17:21:18.746Z,95.31
2018-12-18T17:22:18.743Z,95.06
2018-12-18T17:23:18.728Z,95.31
2018-12-18T17:24:18.721Z,95.31
2018-12-18T17:25:18.731Z,95.00
2018-12-18T17:26:18.699Z,95.58
2018-12-18T17:27:18.688Z,94.96
2018-12-18T17:28:18.675Z,95.17
2018-12-18T17:29:19.086Z,95.17
2018-12-18T17:30:18.668Z,94.96
2018-12-18T17:31:18.645Z,95.27
2018-12-18T17:32:18.632Z,96.00
2018-12-18T17:33:18.618Z,96.00
2018-12-18T17:34:18.609Z,96.00
2018-12-18T17:35:18.609Z,95.37
2018-12-18T17:36:18.589Z,95.06
2018-12-18T17:37:18.576Z,95.12
2018-12-18T17:38:18.561Z,94.81
2018-12-18T17:39:20.542Z,95.17
2018-12-18T17:40:20.673Z,94.85
2018-12-18T17:41:18.521Z,95.06
2018-12-18T17:42:18.518Z,95.06
2018-12-18T17:43:18.511Z,95.06
2018-12-18T17:44:18.490Z,94.96
2018-12-18T17:45:18.490Z,95.17
2018-12-18T17:46:18.509Z,94.85
2018-12-18T17:47:18.458Z,94.96
2018-12-18T17:48:18.448Z,94.85
2018-12-18T17:49:18.713Z,95.27
2018-12-18T17:50:18.438Z,94.96
2018-12-18T17:51:18.425Z,95.31
2018-12-18T17:52:18.401Z,95.27